Time;durP1;ratioP1;P1;durP2;ratioP2;P2;SDS_P1;SDS_P2;PMS_P1;PMS_P2;Temp;Humidity;BMP_temperature;BMP_pressure;BME280_temperature;BME280_humidity;BME280_pressure;Samples;Min_cycle;Max_cycle;Signal;HPM_P1;HPM_P2
2022/08/29 00:00:50;;;;;;;;;1.33;1.33;;;;;23.33;37.86;101316.38;5092696;27;45369;-73
2022/08/29 00:03:17;;;;;;;;;2.33;2.00;;;;;23.34;37.72;101322.59;5092852;27;45270;-74
2022/08/29 00:05:46;;;;;;;;;2.00;1.00;;;;;23.25;37.84;101316.72;5092295;27;46392;-68
2022/08/29 00:08:16;;;;;;;;;3.00;2.00;;;;;23.21;38.00;101322.25;5091404;27;45976;-72
2022/08/29 00:10:53;;;;;;;;;1.00;1.00;;;;;23.03;37.71;101289.97;5092934;27;45551;-67
2022/08/29 00:13:48;;;;;;;;;3.33;2.00;;;;;23.12;37.89;101295.91;5078054;27;45916;-67
2022/08/29 00:16:13;;;;;;;;;2.00;1.00;;;;;23.15;38.21;101318.00;5087232;27;46546;-66
2022/08/29 00:18:39;;;;;;;;;2.00;2.00;;;;;23.01;37.93;101277.63;5091264;27;45510;-67
2022/08/29 00:21:09;;;;;;;;;2.67;1.00;;;;;23.22;37.89;101303.44;5087886;27;45456;-67
2022/08/29 00:23:35;;;;;;;;;1.00;1.00;;;;;23.32;37.82;101311.94;5084410;27;45718;-70
2022/08/29 00:26:01;;;;;;;;;1.67;1.67;;;;;23.20;38.01;101296.44;5101072;27;45972;-69
2022/08/29 00:28:27;;;;;;;;;1.00;1.00;;;;;23.34;38.36;101299.41;5101009;27;45428;-69
2022/08/29 00:30:53;;;;;;;;;1.00;1.00;;;;;23.36;38.31;101310.03;5098052;27;45352;-68
2022/08/29 00:33:19;;;;;;;;;1.33;1.33;;;;;23.41;38.81;101308.03;5097979;27;45859;-68
2022/08/29 00:35:49;;;;;;;;;1.00;1.00;;;;;23.39;38.81;101304.53;5096945;27;45432;-68
2022/08/29 00:38:16;;;;;;;;;1.00;1.00;;;;;23.51;38.54;101304.03;5096667;27;45498;-67
2022/08/29 00:40:52;;;;;;;;;2.00;2.00;;;;;23.55;38.08;101305.63;5097981;27;45842;-69
2022/08/29 00:43:23;;;;;;;;;1.00;1.00;;;;;23.59;37.99;101304.56;5085094;27;45330;-69
2022/08/29 00:46:35;;;;;;;;;0.00;0.00;;;;;23.56;37.82;101296.66;5101967;27;45344;-67
2022/08/29 00:49:35;;;;;;;;;1.33;0.67;;;;;23.63;37.87;101300.84;5067407;27;45463;-69
2022/08/29 00:52:10;;;;;;;;;1.00;1.00;;;;;23.60;38.12;101308.09;5092769;27;45281;-68
2022/08/29 00:54:36;;;;;;;;;1.00;1.00;;;;;23.57;37.74;101301.09;5094740;27;45871;-68
2022/08/29 00:57:02;;;;;;;;;0.67;0.67;;;;;23.57;37.89;101308.25;5097329;27;46071;-68
2022/08/29 00:59:35;;;;;;;;;1.67;1.67;;;;;23.49;38.06;101288.06;5098479;27;45467;-70
2022/08/29 01:02:03;;;;;;;;;1.00;1.00;;;;;23.55;38.01;101304.78;5096233;27;45486;-68
2022/08/29 01:04:30;;;;;;;;;2.00;2.00;;;;;23.57;38.04;101309.13;5095926;27;45325;-69
2022/08/29 01:06:56;;;;;;;;;1.00;1.00;;;;;23.56;37.99;101307.34;5087571;27;45972;-67
2022/08/29 01:09:24;;;;;;;;;2.00;1.00;;;;;23.59;37.60;101311.72;5093806;27;45667;-69
2022/08/29 01:14:35;;;;;;;;;1.67;1.00;;;;;23.57;38.25;101290.41;5081220;27;45487;-69
2022/08/29 01:17:04;;;;;;;;;1.00;1.00;;;;;23.61;38.07;101294.69;5083946;27;46517;-69
2022/08/29 01:19:39;;;;;;;;;0.67;0.33;;;;;23.73;37.72;101305.75;5087722;27;45405;-68
2022/08/29 01:22:28;;;;;;;;;1.00;1.00;;;;;23.54;37.78;101295.88;5097368;27;45533;-69
2022/08/29 01:24:57;;;;;;;;;2.33;1.67;;;;;23.45;37.73;101298.94;5097245;27;45491;-69
2022/08/29 01:27:28;;;;;;;;;1.00;1.00;;;;;23.19;38.45;101284.88;5094040;27;46394;-67
2022/08/29 01:29:53;;;;;;;;;1.67;1.00;;;;;23.25;38.29;101292.66;5093471;27;46025;-68
2022/08/29 01:32:20;;;;;;;;;3.00;3.00;;;;;23.19;38.45;101297.38;5094519;27;45331;-67
2022/08/29 01:34:46;;;;;;;;;2.33;2.00;;;;;23.11;38.33;101286.13;5094605;27;45415;-68
2022/08/29 01:37:14;;;;;;;;;2.00;2.00;;;;;23.10;38.50;101284.41;5093977;27;46284;-68
2022/08/29 01:39:42;;;;;;;;;2.00;2.00;;;;;23.08;38.40;101289.81;5088327;27;45661;-67
2022/08/29 01:42:19;;;;;;;;;1.67;1.67;;;;;23.18;38.42;101298.28;5096005;27;45510;-68
2022/08/29 01:44:50;;;;;;;;;1.33;1.33;;;;;23.11;38.29;101284.31;5098340;27;45398;-67
2022/08/29 01:47:17;;;;;;;;;1.00;1.00;;;;;23.13;38.73;101295.81;5096943;27;45529;-67
2022/08/29 01:49:43;;;;;;;;;1.00;1.00;;;;;23.12;38.35;101287.88;5085831;27;45795;-66
2022/08/29 01:52:09;;;;;;;;;0.00;0.00;;;;;23.01;39.01;101278.50;5100594;27;45534;-73
2022/08/29 01:54:35;;;;;;;;;0.00;0.00;;;;;23.07;38.40;101272.91;5095759;27;45404;-67
2022/08/29 01:57:01;;;;;;;;;2.00;1.00;;;;;23.17;38.66;101293.91;5084344;27;45318;-68
2022/08/29 01:59:29;;;;;;;;;1.00;1.00;;;;;23.13;38.38;101282.44;5097958;27;45400;-67
2022/08/29 02:02:06;;;;;;;;;1.00;1.00;;;;;23.16;38.42;101290.38;5094191;27;45419;-67
2022/08/29 02:04:33;;;;;;;;;1.00;1.00;;;;;23.20;38.17;101285.75;5084601;27;45407;-67
2022/08/29 02:06:59;;;;;;;;;1.00;1.00;;;;;23.19;38.18;101284.88;5084674;27;45417;-67
2022/08/29 02:09:25;;;;;;;;;1.00;1.00;;;;;23.14;38.09;101261.97;5095133;27;45314;-68
2022/08/29 02:11:58;;;;;;;;;1.00;1.00;;;;;23.26;37.85;101282.81;5096995;27;45609;-72
2022/08/29 02:14:24;;;;;;;;;0.67;0.67;;;;;23.21;37.79;101277.69;5095810;27;45612;-66
2022/08/29 02:16:50;;;;;;;;;1.00;1.00;;;;;23.29;38.07;101285.34;5096636;27;45337;-68
2022/08/29 02:19:17;;;;;;;;;2.00;1.00;;;;;23.27;37.85;101276.53;5096564;27;45621;-72
2022/08/29 02:21:43;;;;;;;;;2.00;2.00;;;;;23.21;38.01;101295.53;5096698;27;45751;-70
2022/08/29 02:24:09;;;;;;;;;2.00;1.00;;;;;23.20;38.36;101286.59;5095042;27;45369;-68
2022/08/29 02:26:35;;;;;;;;;1.00;1.00;;;;;23.14;38.22;101280.69;5096720;27;46251;-67
2022/08/29 02:29:01;;;;;;;;;1.00;1.00;;;;;23.18;38.47;101288.50;5097385;27;45497;-68
2022/08/29 02:31:27;;;;;;;;;1.00;1.00;;;;;23.16;38.17;101278.78;5101009;27;45597;-72
2022/08/29 02:33:53;;;;;;;;;1.67;1.00;;;;;23.17;38.48;101269.84;5099308;27;45475;-68
2022/08/29 02:36:20;;;;;;;;;1.00;1.00;;;;;23.16;38.27;101285.03;5087833;27;46069;-68
2022/08/29 02:38:46;;;;;;;;;1.67;1.67;;;;;23.09;38.15;101280.88;5096798;27;45885;-69
2022/08/29 02:41:12;;;;;;;;;1.00;1.00;;;;;22.98;38.30;101275.97;5096783;27;45295;-66
2022/08/29 02:43:37;;;;;;;;;1.00;0.67;;;;;22.98;38.35;101277.72;5100135;27;45304;-67
2022/08/29 02:46:03;;;;;;;;;0.33;0.33;;;;;22.99;38.51;101280.38;5088816;27;45682;-68
2022/08/29 02:48:29;;;;;;;;;1.00;1.00;;;;;22.99;38.33;101274.16;5096303;27;45437;-68
2022/08/29 02:50:57;;;;;;;;;1.00;1.00;;;;;22.88;38.89;101271.03;5096289;27;45587;-67
2022/08/29 02:53:29;;;;;;;;;0.67;0.67;;;;;22.89;38.69;101270.09;5096362;27;45345;-69
2022/08/29 02:55:56;;;;;;;;;1.00;1.00;;;;;22.85;38.13;101272.91;5095877;27;46266;-74
2022/08/29 02:58:23;;;;;;;;;1.00;1.00;;;;;22.95;38.52;101278.72;5083030;27;45453;-66
2022/08/29 03:00:50;;;;;;;;;2.67;1.00;;;;;22.99;38.58;101276.81;5095520;27;45467;-67
2022/08/29 03:03:16;;;;;;;;;1.00;1.00;;;;;22.86;38.67;101271.94;5095120;27;45611;-66
2022/08/29 03:05:42;;;;;;;;;1.00;1.00;;;;;22.92;38.68;101268.19;5098539;27;45435;-69
2022/08/29 03:08:12;;;;;;;;;0.00;0.00;;;;;22.90;38.80;101262.03;5100413;27;45255;-67
2022/08/29 03:10:38;;;;;;;;;2.00;0.33;;;;;22.95;38.71;101268.03;5099587;27;45554;-68
2022/08/29 03:13:04;;;;;;;;;0.00;0.00;;;;;22.88;38.49;101252.34;5095825;27;45283;-69
2022/08/29 03:15:30;;;;;;;;;0.00;0.00;;;;;22.98;38.61;101264.38;5095201;27;46160;-68
2022/08/29 03:17:56;;;;;;;;;0.67;0.67;;;;;23.00;38.61;101266.06;5098028;27;45455;-69
2022/08/29 03:20:23;;;;;;;;;1.00;0.00;;;;;23.01;38.64;101272.28;5099998;27;45294;-70
2022/08/29 03:22:49;;;;;;;;;0.00;0.00;;;;;23.00;38.61;101265.22;5094368;27;45678;-67
2022/08/29 03:25:15;;;;;;;;;1.00;1.00;;;;;23.01;38.67;101267.81;5096056;27;46488;-71
2022/08/29 03:27:40;;;;;;;;;0.33;0.33;;;;;23.00;38.80;101265.22;5098650;27;45364;-68
2022/08/29 03:30:08;;;;;;;;;1.00;1.00;;;;;22.96;38.85;101267.09;5096034;27;45356;-67
2022/08/29 03:32:33;;;;;;;;;0.00;0.00;;;;;22.97;38.76;101258.16;5095658;27;45456;-67
2022/08/29 03:34:59;;;;;;;;;2.00;1.00;;;;;23.00;38.69;101265.22;5098094;27;46314;-67
2022/08/29 03:37:25;;;;;;;;;1.00;1.00;;;;;22.99;38.62;101263.47;5099634;27;46074;-67
2022/08/29 03:39:51;;;;;;;;;1.00;1.00;;;;;22.93;38.67;101256.53;5095351;27;45436;-68
2022/08/29 03:42:17;;;;;;;;;1.67;0.67;;;;;22.94;38.67;101258.28;5094226;27;45774;-66
2022/08/29 03:44:43;;;;;;;;;1.00;1.00;;;;;22.97;38.50;101257.28;5090371;27;46106;-66
2022/08/29 03:47:08;;;;;;;;;1.00;1.00;;;;;22.82;38.80;101237.41;5095320;27;45851;-66
2022/08/29 03:49:34;;;;;;;;;1.33;1.00;;;;;22.93;38.87;101258.34;5095385;27;45423;-69
2022/08/29 03:52:00;;;;;;;;;0.33;0.33;;;;;22.85;38.96;101242.63;5094982;27;45439;-68
2022/08/29 03:54:27;;;;;;;;;1.00;1.00;;;;;22.85;38.91;101246.19;5095312;27;45458;-67
2022/08/29 03:56:54;;;;;;;;;2.00;1.00;;;;;22.78;38.83;101244.69;5098155;27;45622;-67
2022/08/29 03:59:20;;;;;;;;;1.00;1.00;;;;;22.88;38.81;101263.03;5085185;27;45222;-68
2022/08/29 04:01:48;;;;;;;;;2.00;1.00;;;;;22.80;39.04;101253.53;5099644;27;45507;-65
2022/08/29 04:07:00;;;;;;;;;1.00;1.00;;;;;22.76;38.89;101254.56;5094764;27;45530;-65
2022/08/29 04:09:27;;;;;;;;;2.00;0.67;;;;;22.81;39.03;101268.59;5093609;27;45488;-66
2022/08/29 04:11:53;;;;;;;;;1.00;0.33;;;;;22.81;39.19;101275.75;5095201;27;45473;-67
2022/08/29 04:14:20;;;;;;;;;1.33;1.33;;;;;22.78;39.29;101262.50;5094611;27;45471;-69
2022/08/29 04:16:49;;;;;;;;;3.00;1.00;;;;;22.79;39.12;101265.13;5095196;27;45797;-67
2022/08/29 04:19:18;;;;;;;;;0.67;0.67;;;;;22.73;39.31;101262.72;5095357;27;45460;-68
2022/08/29 04:21:44;;;;;;;;;0.00;0.00;;;;;22.74;39.37;101259.09;5095310;27;45316;-66
2022/08/29 04:24:11;;;;;;;;;1.00;1.00;;;;;22.58;39.30;101233.94;5094235;27;45423;-68
2022/08/29 04:26:44;;;;;;;;;1.67;1.00;;;;;22.67;39.19;101249.59;5094115;27;45411;-66
2022/08/29 04:29:12;;;;;;;;;1.00;1.00;;;;;22.75;39.25;101263.50;5096269;27;45341;-67
2022/08/29 04:31:40;;;;;;;;;0.33;0.33;;;;;22.73;39.44;101267.16;5099131;27;45376;-66
2022/08/29 04:34:07;;;;;;;;;2.67;1.00;;;;;22.62;39.38;101251.59;5097812;27;45912;-68
2022/08/29 04:36:34;;;;;;;;;0.00;0.00;;;;;22.69;39.42;101268.25;5094841;27;45685;-66
2022/08/29 04:39:00;;;;;;;;;1.00;1.00;;;;;22.64;39.35;101268.44;5094347;27;45530;-70
2022/08/29 04:41:26;;;;;;;;;1.00;1.00;;;;;22.64;39.35;101268.44;5094469;27;45496;-68
2022/08/29 04:43:55;;;;;;;;;1.33;1.00;;;;;22.54;39.59;101259.03;5093743;27;45361;-66
2022/08/29 04:46:21;;;;;;;;;2.00;1.00;;;;;22.62;39.43;101271.13;5090458;27;45515;-69
2022/08/29 04:48:47;;;;;;;;;1.00;1.00;;;;;22.61;39.40;101280.09;5094816;27;45634;-70
2022/08/29 04:51:13;;;;;;;;;1.00;1.00;;;;;22.53;39.43;101268.84;5094756;27;45748;-74
2022/08/29 04:53:38;;;;;;;;;0.00;0.00;;;;;22.54;39.44;101270.59;5094246;27;45661;-70
2022/08/29 04:56:09;;;;;;;;;1.67;1.00;;;;;22.56;39.68;101286.53;5094294;27;45747;-69
2022/08/29 04:58:37;;;;;;;;;1.33;1.33;;;;;22.54;39.78;101294.63;5079360;27;45429;-67
2022/08/29 05:01:04;;;;;;;;;2.00;2.00;;;;;22.06;39.49;101210.13;5097273;27;45530;-74
2022/08/29 05:03:31;;;;;;;;;2.00;2.00;;;;;22.53;39.59;101298.19;5093982;27;45631;-69
2022/08/29 05:05:59;;;;;;;;;2.00;1.00;;;;;22.44;39.65;101283.41;5092220;27;45434;-71
2022/08/29 05:08:26;;;;;;;;;1.33;1.33;;;;;22.32;40.14;101304.38;5094546;27;45491;-69
2022/08/29 05:10:52;;;;;;;;;2.67;2.00;;;;;22.02;40.42;101260.09;5094278;27;45460;-68
2022/08/29 05:13:18;;;;;;;;;1.33;1.33;;;;;22.23;40.05;101289.56;5093407;27;45613;-72
2022/08/29 05:15:44;;;;;;;;;2.00;2.00;;;;;22.17;40.00;101279.09;5097679;27;45495;-74
2022/08/29 05:18:11;;;;;;;;;1.00;1.00;;;;;22.00;39.81;101245.06;5097049;27;45344;-71
2022/08/29 05:20:41;;;;;;;;;1.33;1.33;;;;;22.37;40.06;101299.72;5093985;27;45712;-72
2022/08/29 05:23:08;;;;;;;;;2.00;1.00;;;;;22.40;39.80;101300.47;5094452;27;45609;-70
2022/08/29 05:25:33;;;;;;;;;2.67;2.67;;;;;22.28;40.20;101295.63;5093924;27;45724;-72
2022/08/29 05:27:59;;;;;;;;;2.00;2.00;;;;;22.18;40.33;101294.16;5094130;27;45569;-70
2022/08/29 05:30:24;;;;;;;;;2.00;2.00;;;;;22.27;40.33;101307.19;5085698;27;45408;-75
2022/08/29 05:32:50;;;;;;;;;3.33;1.33;;;;;22.05;40.49;101299.09;5094069;27;45431;-68
2022/08/29 05:35:17;;;;;;;;;2.33;2.00;;;;;22.11;40.66;101322.88;5094884;27;45450;-68
2022/08/29 05:37:42;;;;;;;;;3.00;3.00;;;;;22.14;40.68;101309.44;5097323;27;45336;-67
2022/08/29 05:40:08;;;;;;;;;1.00;1.00;;;;;22.17;40.66;101311.13;5099113;27;45433;-73
2022/08/29 05:42:34;;;;;;;;;4.00;1.33;;;;;22.28;40.24;101319.63;5097522;27;46257;-72
2022/08/29 05:45:01;;;;;;;;;3.00;1.33;;;;;22.36;40.02;101325.53;5092185;27;45444;-72
2022/08/29 05:47:27;;;;;;;;;1.67;1.67;;;;;22.42;39.77;101332.44;5086096;27;45932;-73
2022/08/29 05:49:52;;;;;;;;;1.33;1.33;;;;;22.42;39.90;101325.31;5096747;27;45298;-71
2022/08/29 05:52:20;;;;;;;;;2.00;1.00;;;;;22.55;39.55;101330.19;5100163;27;46482;-68
2022/08/29 05:54:45;;;;;;;;;2.33;1.33;;;;;22.70;39.34;101326.91;5087131;27;45423;-67
2022/08/29 05:57:14;;;;;;;;;4.67;2.00;;;;;22.67;39.25;101313.69;5098105;27;45294;-66
2022/08/29 05:59:40;;;;;;;;;4.00;1.67;;;;;22.73;38.93;101307.22;5090473;27;45381;-69
2022/08/29 06:02:08;;;;;;;;;4.00;3.00;;;;;22.98;38.96;101342.75;5096855;27;45455;-69
2022/08/29 06:04:34;;;;;;;;;6.33;3.00;;;;;23.01;39.07;101333.72;5090413;27;45490;-69
2022/08/29 06:07:00;;;;;;;;;1.00;1.00;;;;;22.97;38.75;101329.41;5099298;27;45329;-67
2022/08/29 06:09:25;;;;;;;;;2.67;2.67;;;;;22.81;38.97;101318.47;5093313;27;45665;-67
2022/08/29 06:11:56;;;;;;;;;5.00;3.00;;;;;22.77;39.04;101331.06;5097279;27;45364;-67
2022/08/29 06:14:22;;;;;;;;;3.33;3.00;;;;;22.77;38.95;101320.38;5100756;27;45389;-70
2022/08/29 06:16:47;;;;;;;;;2.00;2.00;;;;;22.87;38.97;101339.59;5099222;27;45564;-66
2022/08/29 06:19:13;;;;;;;;;4.67;2.00;;;;;22.73;39.24;101325.91;5096936;27;45478;-66
2022/08/29 06:21:39;;;;;;;;;3.33;2.33;;;;;22.82;39.09;101341.56;5091879;27;47133;-67
2022/08/29 06:24:08;;;;;;;;;2.00;2.00;;;;;22.66;39.74;101333.31;5087066;27;45563;-67
2022/08/29 06:26:35;;;;;;;;;2.00;2.00;;;;;22.74;39.49;101352.56;5096213;27;45452;-67
2022/08/29 06:29:11;;;;;;;;;1.33;1.33;;;;;22.66;39.68;101362.69;5096596;27;45664;-67
2022/08/29 06:31:37;;;;;;;;;3.00;3.00;;;;;22.50;39.62;101335.69;5098328;27;46745;-67
2022/08/29 06:34:05;;;;;;;;;2.00;2.00;;;;;22.72;39.40;101370.44;5101573;27;45180;-75
2022/08/29 06:36:33;;;;;;;;;2.33;1.67;;;;;22.82;39.35;101363.81;5100612;27;45176;-70
2022/08/29 06:39:00;;;;;;;;;2.67;2.00;;;;;22.71;40.11;101360.69;5096842;27;45692;-67
2022/08/29 06:41:33;;;;;;;;;3.00;3.00;;;;;22.73;40.03;101360.63;5090015;27;46501;-67
2022/08/29 06:43:59;;;;;;;;;3.00;2.67;;;;;22.68;40.11;101350.13;5094645;27;45622;-66
2022/08/29 06:46:29;;;;;;;;;3.33;2.00;;;;;22.83;39.74;101359.34;5088925;27;45709;-68
2022/08/29 06:48:57;;;;;;;;;2.00;2.00;;;;;22.90;39.46;101365.28;5081925;27;45377;-66
2022/08/29 06:51:23;;;;;;;;;4.00;2.33;;;;;22.85;39.45;101354.78;5096159;27;45300;-68
2022/08/29 06:53:49;;;;;;;;;4.00;3.00;;;;;22.84;39.31;101351.25;5096497;27;45887;-67
2022/08/29 06:56:15;;;;;;;;;3.00;3.00;;;;;22.87;39.40;101347.59;5097311;27;45533;-67
2022/08/29 06:58:41;;;;;;;;;2.00;2.00;;;;;22.77;39.22;101331.06;5082464;27;45475;-68
2022/08/29 07:01:11;;;;;;;;;2.33;1.00;;;;;23.02;39.05;101360.38;5094958;27;45437;-66
2022/08/29 07:03:38;;;;;;;;;3.00;3.00;;;;;23.03;38.96;101355.91;5087342;27;45396;-66
2022/08/29 07:06:04;;;;;;;;;2.00;1.00;;;;;22.89;39.48;101367.09;5096178;27;45710;-68
2022/08/29 07:08:31;;;;;;;;;2.33;2.33;;;;;22.91;39.42;101372.41;5096155;27;45427;-67
2022/08/29 07:10:57;;;;;;;;;2.00;2.00;;;;;22.92;39.01;101360.78;5100260;27;45544;-67
2022/08/29 07:13:22;;;;;;;;;3.00;3.00;;;;;23.06;38.88;101372.69;5096269;27;45622;-68
2022/08/29 07:15:56;;;;;;;;;3.67;3.67;;;;;23.07;38.57;101349.53;5094995;27;45420;-67
2022/08/29 07:18:22;;;;;;;;;4.67;3.00;;;;;23.13;38.84;101369.78;5091707;27;45452;-67
2022/08/29 07:20:48;;;;;;;;;4.00;2.00;;;;;23.05;38.98;101362.06;5092397;27;45571;-67
2022/08/29 07:23:14;;;;;;;;;2.00;2.00;;;;;23.13;39.08;101369.78;5099310;27;45364;-68
2022/08/29 07:25:40;;;;;;;;;3.33;3.33;;;;;23.07;39.10;101360.22;5094790;27;45993;-68
2022/08/29 07:28:06;;;;;;;;;5.00;4.00;;;;;23.08;39.11;101359.25;5095469;27;45567;-70
2022/08/29 07:30:32;;;;;;;;;4.67;3.00;;;;;23.11;39.24;101363.59;5095192;27;45403;-71
2022/08/29 07:32:58;;;;;;;;;3.33;2.00;;;;;23.22;39.05;101364.06;5094430;27;45561;-69
2022/08/29 07:35:24;;;;;;;;;3.67;2.00;;;;;23.40;38.81;101368.66;5096094;27;45460;-69
2022/08/29 07:37:51;;;;;;;;;4.50;3.50;;;;;23.41;38.44;101332.94;5095668;27;45500;-71
2022/08/29 07:40:17;;;;;;;;;5.00;4.00;;;;;23.66;38.11;101367.56;5095447;27;45605;-70
2022/08/29 07:42:43;;;;;;;;;4.33;4.00;;;;;23.82;38.08;101358.88;5095745;27;45370;-69
2022/08/29 07:45:14;;;;;;;;;3.00;3.00;;;;;23.86;37.96;101361.34;5090587;27;45326;-69
2022/08/29 07:47:40;;;;;;;;;2.00;2.00;;;;;24.05;37.80;101365.91;5093796;27;45500;-67
2022/08/29 07:50:08;;;;;;;;;2.67;2.33;;;;;24.23;37.13;101367.78;5094718;27;46175;-68
2022/08/29 07:52:42;;;;;;;;;3.67;3.00;;;;;24.41;37.16;101373.22;5095082;27;45393;-69
2022/08/29 07:55:09;;;;;;;;;3.33;1.67;;;;;24.46;37.07;101361.38;5097681;27;45323;-69
2022/08/29 07:57:34;;;;;;;;;3.00;2.67;;;;;24.57;36.42;101358.22;5090255;27;45576;-69
2022/08/29 08:00:01;;;;;;;;;2.67;2.00;;;;;24.81;36.19;101377.63;5086219;27;46560;-71
2022/08/29 08:02:26;;;;;;;;;2.00;2.00;;;;;24.93;36.61;101373.47;5094866;27;45477;-69
2022/08/29 08:04:52;;;;;;;;;2.33;2.33;;;;;25.04;36.32;101367.63;5084234;27;45476;-67
2022/08/29 08:07:18;;;;;;;;;5.00;2.00;;;;;25.15;35.92;101365.25;5092060;27;45646;-72
2022/08/29 08:09:44;;;;;;;;;4.00;3.00;;;;;25.05;36.16;101339.88;5095440;27;45573;-74
2022/08/29 08:12:09;;;;;;;;;2.00;2.00;;;;;25.25;35.82;101352.31;5095096;27;45565;-71
2022/08/29 08:14:35;;;;;;;;;4.00;3.33;;;;;25.32;35.58;101351.94;5098689;27;45480;-70
2022/08/29 08:17:02;;;;;;;;;3.33;3.00;;;;;25.25;35.70;101349.63;5095284;27;45428;-69
2022/08/29 08:19:28;;;;;;;;;3.00;3.00;;;;;25.15;35.68;101347.38;5096019;27;45447;-68
2022/08/29 08:21:53;;;;;;;;;7.00;4.00;;;;;25.10;35.95;101353.91;5096002;27;45505;-68
2022/08/29 08:24:20;;;;;;;;;5.33;5.00;;;;;25.07;36.43;101348.69;5095263;27;45734;-68
2022/08/29 08:26:46;;;;;;;;;7.67;5.33;;;;;25.06;36.18;101337.13;5092737;27;45366;-72
2022/08/29 08:29:12;;;;;;;;;5.00;5.00;;;;;25.16;35.94;101340.22;5089741;27;45471;-69
2022/08/29 08:31:48;;;;;;;;;9.33;5.00;;;;;25.16;35.77;101316.09;5095088;27;45483;-72
2022/08/29 08:34:15;;;;;;;;;6.00;4.67;;;;;25.41;35.80;101341.69;5095703;27;46016;-73
2022/08/29 08:36:43;;;;;;;;;6.00;4.00;;;;;25.52;36.53;101347.38;5099500;27;45540;-73
2022/08/29 08:39:11;;;;;;;;;3.67;3.67;;;;;25.66;35.33;101341.31;5097860;27;45522;-71
2022/08/29 08:41:55;;;;;;;;;4.00;3.00;;;;;25.78;35.69;101341.53;5100223;27;45450;-73
2022/08/29 08:44:21;;;;;;;;;10.00;9.33;;;;;25.90;35.58;101347.25;5091045;27;45454;-68
2022/08/29 08:46:52;;;;;;;;;36.33;32.00;;;;;26.01;35.58;101347.56;5096034;27;45392;-66
2022/08/29 08:49:38;;;;;;;;;24.33;20.67;;;;;26.00;35.20;101332.38;5099484;27;46562;-74
2022/08/29 08:52:26;;;;;;;;;13.00;11.33;;;;;26.18;35.06;101350.19;5087242;27;45492;-76
2022/08/29 08:55:27;;;;;;;;;9.00;7.33;;;;;26.10;34.74;101338.13;5096768;27;45538;-66
2022/08/29 08:58:32;;;;;;;;;7.00;6.00;;;;;26.25;34.88;101344.50;5089841;27;45654;-66
2022/08/29 09:01:19;;;;;;;;;8.67;6.33;;;;;26.12;34.86;101345.16;5079799;27;45499;-67
2022/08/29 09:04:03;;;;;;;;;3.67;3.33;;;;;25.95;35.24;101343.34;5092991;27;45477;-68
2022/08/29 09:06:39;;;;;;;;;5.00;3.67;;;;;25.99;35.50;101346.75;5080581;27;45440;-68
2022/08/29 09:09:16;;;;;;;;;3.33;3.33;;;;;26.04;34.59;101350.06;5084146;27;45530;-71
2022/08/29 09:11:42;;;;;;;;;7.67;6.00;;;;;25.97;35.40;101357.56;5074972;27;46130;-71
2022/08/29 09:14:32;;;;;;;;;6.00;6.00;;;;;25.68;35.64;101351.03;5085398;27;45588;-70
2022/08/29 09:17:00;;;;;;;;;5.00;4.67;;;;;25.71;35.24;101350.00;5080999;27;45547;-66
2022/08/29 09:19:25;;;;;;;;;3.33;3.33;;;;;25.74;35.42;101341.78;5076470;27;45521;-66
2022/08/29 09:22:23;;;;;;;;;4.50;3.25;;;;;25.91;35.09;101335.56;5085308;27;46153;-75
2022/08/29 09:25:12;;;;;;;;;5.33;4.33;;;;;25.94;35.31;101340.78;5089892;27;45754;-65
2022/08/29 09:27:39;;;;;;;;;4.67;4.67;;;;;26.05;35.14;101329.44;5095390;27;45423;-76
2022/08/29 09:30:13;;;;;;;;;3.00;3.00;;;;;26.22;35.15;101338.34;5077025;27;45406;-73
2022/08/29 09:33:02;;;;;;;;;4.33;4.33;;;;;26.25;35.06;101323.03;5087667;27;46261;-75
2022/08/29 09:35:39;;;;;;;;;3.00;3.00;;;;;26.46;35.02;101346.03;5082740;27;45247;-75
2022/08/29 09:38:17;;;;;;;;;4.00;3.67;;;;;26.59;34.88;101347.09;5086199;27;45436;-66
2022/08/29 09:40:53;;;;;;;;;10.00;4.67;;;;;26.54;34.46;101326.81;5089041;27;45432;-67
2022/08/29 09:43:30;;;;;;;;;7.33;6.00;;;;;26.33;34.60;101324.31;5091490;27;47272;-66
2022/08/29 09:46:14;;;;;;;;;7.00;5.67;;;;;26.39;35.34;101347.31;5085233;27;45447;-66
2022/08/29 09:48:50;;;;;;;;;9.33;5.00;;;;;26.44;35.56;101340.72;5078392;27;45511;-65
2022/08/29 09:51:25;;;;;;;;;4.67;4.67;;;;;26.56;35.26;101324.91;5085869;27;45387;-68
2022/08/29 09:54:10;;;;;;;;;4.00;4.00;;;;;26.73;35.08;101335.56;5088155;27;45514;-65
2022/08/29 09:56:39;;;;;;;;;8.33;5.33;;;;;26.67;34.70;101335.06;5076690;27;45350;-66
2022/08/29 09:59:35;;;;;;;;;4.00;4.00;;;;;26.43;34.31;101328.25;5088851;27;45727;-66
2022/08/29 10:02:23;;;;;;;;;5.33;4.00;;;;;26.52;34.85;101332.22;5076267;27;45365;-69
2022/08/29 10:04:53;;;;;;;;;9.33;6.00;;;;;26.49;34.79;101329.72;5077517;27;46377;-72
2022/08/29 10:07:25;;;;;;;;;4.33;4.33;;;;;26.54;34.90;101338.41;5076001;27;45672;-76
2022/08/29 10:10:25;;;;;;;;;5.00;5.00;;;;;26.16;34.73;101239.34;5077576;27;45539;-73
2022/08/29 10:13:18;;;;;;;;;5.00;5.00;;;;;26.71;34.77;101307.06;5058215;27;45729;-69
2022/08/29 10:15:56;;;;;;;;;8.33;6.00;;;;;26.82;34.45;101300.13;5076645;27;45557;-75
2022/08/29 10:18:46;;;;;;;;;7.00;5.33;;;;;27.04;34.41;101325.75;5078544;27;45377;-78
2022/08/29 10:21:45;;;;;;;;;6.33;6.33;;;;;27.09;34.43;101326.38;5079838;27;45299;-72
2022/08/29 10:24:35;;;;;;;;;5.67;5.00;;;;;27.27;34.17;101324.47;5072427;27;45184;-72
2022/08/29 10:27:15;;;;;;;;;4.75;3.25;;;;;27.44;34.48;101316.25;5082728;27;45481;-71
2022/08/29 10:29:52;;;;;;;;;8.00;7.67;;;;;27.61;33.43;101314.38;5080763;27;45507;-68
2022/08/29 10:32:54;;;;;;;;;7.00;6.00;;;;;27.50;33.91;101306.94;5079431;27;45417;-70
2022/08/29 10:35:39;;;;;;;;;7.00;6.00;;;;;27.41;33.86;101313.75;5076668;27;45483;-68
2022/08/29 10:38:38;;;;;;;;;10.00;6.67;;;;;27.41;34.52;101318.28;5093442;27;47566;-68
2022/08/29 10:41:40;;;;;;;;;6.25;6.00;;;;;27.47;33.94;101309.81;5092362;27;45469;-67
2022/08/29 10:44:17;;;;;;;;;7.75;6.50;;;;;27.52;34.25;101313.09;5078125;27;45385;-67
2022/08/29 10:46:48;;;;;;;;;5.00;5.00;;;;;27.73;34.14;101302.88;5076316;27;45662;-67
2022/08/29 10:49:47;;;;;;;;;4.25;4.25;;;;;27.91;33.66;101295.53;5076571;27;45714;-71
2022/08/29 10:52:31;;;;;;;;;7.00;7.00;;;;;28.17;33.20;101307.34;5077403;27;45898;-69
2022/08/29 10:55:22;;;;;;;;;10.00;8.00;;;;;28.26;33.20;101303.19;5077280;27;45466;-69
2022/08/29 10:58:16;;;;;;;;;5.75;5.75;;;;;28.11;33.15;101303.19;5058334;27;45532;-69
2022/08/29 11:00:51;;;;;;;;;4.75;4.75;;;;;28.28;32.99;101299.44;5095954;27;45525;-70
2022/08/29 11:03:38;;;;;;;;;4.00;4.00;;;;;28.44;32.97;101303.88;5086529;27;45435;-68
2022/08/29 11:06:23;;;;;;;;;5.00;4.50;;;;;28.45;32.49;101300.19;5080639;27;45598;-69
2022/08/29 11:09:07;;;;;;;;;9.25;7.00;;;;;28.42;32.83;101303.09;5079727;27;45363;-67
2022/08/29 11:11:36;;;;;;;;;5.33;5.33;;;;;28.37;33.45;101298.00;5096385;27;46422;-69
2022/08/29 11:14:18;;;;;;;;;8.00;8.00;;;;;28.51;32.81;101289.94;5083939;27;45507;-73
2022/08/29 11:17:07;;;;;;;;;6.00;6.00;;;;;28.42;32.34;101270.75;5076595;27;45390;-68
2022/08/29 11:20:08;;;;;;;;;8.00;7.75;;;;;28.49;32.76;101259.50;5094669;27;45712;-67
2022/08/29 11:23:12;;;;;;;;;9.00;8.00;;;;;28.74;32.18;101263.31;5076855;27;45638;-67
2022/08/29 11:25:40;;;;;;;;;6.50;6.50;;;;;28.95;33.17;101261.88;5078103;27;45470;-68
2022/08/29 11:28:53;;;;;;;;;6.00;6.00;;;;;29.42;31.91;101277.66;5076855;27;45810;-70
2022/08/29 11:31:53;;;;;;;;;9.00;8.00;;;;;29.31;31.60;101276.56;5072892;27;45632;-67
2022/08/29 11:34:43;;;;;;;;;7.75;7.75;;;;;29.43;31.47;101276.72;5088590;27;46169;-68
2022/08/29 11:37:22;;;;;;;;;8.75;8.25;;;;;29.59;33.05;101271.97;5075216;27;45471;-68
2022/08/29 11:39:57;;;;;;;;;8.00;8.00;;;;;29.85;30.97;101267.47;5090670;27;45432;-68
2022/08/29 11:42:29;;;;;;;;;8.50;8.50;;;;;29.87;31.52;101276.31;5077653;27;45422;-67
2022/08/29 11:44:58;;;;;;;;;8.00;8.00;;;;;29.67;31.47;101263.38;5079751;27;45462;-67
2022/08/29 11:47:37;;;;;;;;;9.50;8.75;;;;;29.98;31.43;101280.97;5095782;27;45302;-68
2022/08/29 11:50:26;;;;;;;;;9.00;6.50;;;;;30.04;30.63;101279.66;5089280;27;45448;-68